sensor_id;sensor_type;location;lat;lon;timestamp;pressure;altitude;pressure_sealevel;temperature;humidity
60240;BME280;46102;39.012;-7.064;2023-03-15T00:01:59;98896.50;;;12.64;62.60
60240;BME280;46102;39.012;-7.064;2023-03-15T00:04:00;98890.66;;;12.57;62.77
60240;BME280;46102;39.012;-7.064;2023-03-15T00:06:02;98898.75;;;12.54;62.87
60240;BME280;46102;39.012;-7.064;2023-03-15T00:08:04;98887.75;;;12.54;62.60
60240;BME280;46102;39.012;-7.064;2023-03-15T00:10:05;98887.41;;;12.55;62.76
60240;BME280;46102;39.012;-7.064;2023-03-15T00:12:06;98891.63;;;12.53;63.01
60240;BME280;46102;39.012;-7.064;2023-03-15T00:14:07;98879.34;;;12.50;62.81
60240;BME280;46102;39.012;-7.064;2023-03-15T00:16:08;98884.97;;;12.54;62.68
60240;BME280;46102;39.012;-7.064;2023-03-15T00:18:08;98880.78;;;12.47;62.77
60240;BME280;46102;39.012;-7.064;2023-03-15T00:20:11;98879.47;;;12.45;62.62
60240;BME280;46102;39.012;-7.064;2023-03-15T00:22:14;98884.16;;;12.44;62.52
60240;BME280;46102;39.012;-7.064;2023-03-15T00:24:14;98879.81;;;12.43;62.23
60240;BME280;46102;39.012;-7.064;2023-03-15T00:26:15;98880.59;;;12.44;62.15
60240;BME280;46102;39.012;-7.064;2023-03-15T00:28:16;98878.34;;;12.46;62.04
60240;BME280;46102;39.012;-7.064;2023-03-15T00:30:17;98878.50;;;12.49;61.71
60240;BME280;46102;39.012;-7.064;2023-03-15T00:32:18;98876.88;;;12.48;61.87
60240;BME280;46102;39.012;-7.064;2023-03-15T00:34:19;98881.91;;;12.46;61.63
60240;BME280;46102;39.012;-7.064;2023-03-15T00:36:24;98880.44;;;12.49;61.65
60240;BME280;46102;39.012;-7.064;2023-03-15T00:38:25;98873.34;;;12.48;61.79
60240;BME280;46102;39.012;-7.064;2023-03-15T00:40:26;98871.38;;;12.48;61.89
60240;BME280;46102;39.012;-7.064;2023-03-15T00:42:27;98880.44;;;12.49;61.57
60240;BME280;46102;39.012;-7.064;2023-03-15T00:44:28;98872.53;;;12.47;61.48
60240;BME280;46102;39.012;-7.064;2023-03-15T00:46:30;98873.97;;;12.45;61.60
60240;BME280;46102;39.012;-7.064;2023-03-15T00:48:32;98865.56;;;12.41;61.46
60240;BME280;46102;39.012;-7.064;2023-03-15T00:50:33;98861.34;;;12.44;61.61
60240;BME280;46102;39.012;-7.064;2023-03-15T00:52:37;98858.91;;;12.42;62.06
60240;BME280;46102;39.012;-7.064;2023-03-15T00:54:38;98859.38;;;12.36;62.27
60240;BME280;46102;39.012;-7.064;2023-03-15T00:56:39;98861.19;;;12.32;62.46
60240;BME280;46102;39.012;-7.064;2023-03-15T00:58:41;98854.69;;;12.27;62.42
60240;BME280;46102;39.012;-7.064;2023-03-15T01:00:42;98859.72;;;12.25;62.82
60240;BME280;46102;39.012;-7.064;2023-03-15T01:02:43;98863.09;;;12.22;63.10
60240;BME280;46102;39.012;-7.064;2023-03-15T01:04:44;98851.13;;;12.18;63.08
60240;BME280;46102;39.012;-7.064;2023-03-15T01:06:44;98855.78;;;12.18;63.29
60240;BME280;46102;39.012;-7.064;2023-03-15T01:08:46;98859.50;;;12.13;63.42
60240;BME280;46102;39.012;-7.064;2023-03-15T01:10:47;98857.59;;;12.14;63.19
60240;BME280;46102;39.012;-7.064;2023-03-15T01:12:48;98855.47;;;12.11;63.54
60240;BME280;46102;39.012;-7.064;2023-03-15T01:14:49;98847.53;;;12.09;62.99
60240;BME280;46102;39.012;-7.064;2023-03-15T01:16:50;98856.91;;;12.08;63.07
60240;BME280;46102;39.012;-7.064;2023-03-15T01:18:51;98847.53;;;12.09;63.09
60240;BME280;46102;39.012;-7.064;2023-03-15T01:20:53;98850.59;;;12.07;62.85
60240;BME280;46102;39.012;-7.064;2023-03-15T01:22:54;98846.72;;;12.08;62.76
60240;BME280;46102;39.012;-7.064;2023-03-15T01:24:54;98848.50;;;12.13;62.56
60240;BME280;46102;39.012;-7.064;2023-03-15T01:26:55;98846.09;;;12.12;62.66
60240;BME280;46102;39.012;-7.064;2023-03-15T01:28:56;98846.59;;;12.14;62.36
60240;BME280;46102;39.012;-7.064;2023-03-15T01:30:57;98851.25;;;12.13;62.46
60240;BME280;46102;39.012;-7.064;2023-03-15T01:32:58;98852.41;;;12.12;62.60
60240;BME280;46102;39.012;-7.064;2023-03-15T01:34:59;98845.91;;;12.08;62.38
60240;BME280;46102;39.012;-7.064;2023-03-15T01:37:00;98843.47;;;12.06;62.58
60240;BME280;46102;39.012;-7.064;2023-03-15T01:39:08;98847.19;;;12.02;62.87
60240;BME280;46102;39.012;-7.064;2023-03-15T01:41:16;98842.66;;;11.97;62.69
60240;BME280;46102;39.012;-7.064;2023-03-15T01:43:21;98848.47;;;11.96;63.02
60240;BME280;46102;39.012;-7.064;2023-03-15T01:48:02;98845.84;;;11.91;63.04
60240;BME280;46102;39.012;-7.064;2023-03-15T01:50:07;98842.63;;;11.88;63.10
60240;BME280;46102;39.012;-7.064;2023-03-15T01:52:13;98846.50;;;11.87;63.12
60240;BME280;46102;39.012;-7.064;2023-03-15T01:56:26;98830.19;;;11.91;63.11
60240;BME280;46102;39.012;-7.064;2023-03-15T01:58:28;98826.94;;;11.89;63.20
60240;BME280;46102;39.012;-7.064;2023-03-15T02:00:30;98825.94;;;11.85;63.52
60240;BME280;46102;39.012;-7.064;2023-03-15T02:02:44;98826.75;;;11.85;63.65
60240;BME280;46102;39.012;-7.064;2023-03-15T02:04:57;98821.41;;;11.80;63.44
60240;BME280;46102;39.012;-7.064;2023-03-15T02:07:01;98821.69;;;11.79;63.58
60240;BME280;46102;39.012;-7.064;2023-03-15T02:09:08;98813.94;;;11.81;63.46
60240;BME280;46102;39.012;-7.064;2023-03-15T02:11:17;98813.66;;;11.82;63.52
60240;BME280;46102;39.012;-7.064;2023-03-15T02:13:21;98805.41;;;11.82;63.49
60240;BME280;46102;39.012;-7.064;2023-03-15T02:15:23;98805.72;;;11.81;63.10
60240;BME280;46102;39.012;-7.064;2023-03-15T02:17:35;98808.47;;;11.81;63.34
60240;BME280;46102;39.012;-7.064;2023-03-15T02:19:48;98801.66;;;11.78;63.37
60240;BME280;46102;39.012;-7.064;2023-03-15T02:22:06;98804.72;;;11.77;63.42
60240;BME280;46102;39.012;-7.064;2023-03-15T02:26:45;98799.25;;;11.85;62.96
60240;BME280;46102;39.012;-7.064;2023-03-15T02:28:48;98793.56;;;11.82;63.00
60240;BME280;46102;39.012;-7.064;2023-03-15T02:30:50;98795.97;;;11.75;63.47
60240;BME280;46102;39.012;-7.064;2023-03-15T02:32:51;98801.31;;;11.71;63.63
60240;BME280;46102;39.012;-7.064;2023-03-15T02:34:51;98795.50;;;11.73;63.25
60240;BME280;46102;39.012;-7.064;2023-03-15T02:36:52;98791.28;;;11.75;63.48
60240;BME280;46102;39.012;-7.064;2023-03-15T02:38:55;98788.19;;;11.68;63.45
60240;BME280;46102;39.012;-7.064;2023-03-15T02:40:56;98792.72;;;11.64;63.64
60240;BME280;46102;39.012;-7.064;2023-03-15T02:43:02;98791.09;;;11.63;63.87
60240;BME280;46102;39.012;-7.064;2023-03-15T02:45:05;98779.94;;;11.59;63.70
60240;BME280;46102;39.012;-7.064;2023-03-15T02:47:16;98791.06;;;11.54;63.78
60240;BME280;46102;39.012;-7.064;2023-03-15T02:49:22;98785.88;;;11.53;64.12
60240;BME280;46102;39.012;-7.064;2023-03-15T02:51:27;98782.66;;;11.51;64.33
60240;BME280;46102;39.012;-7.064;2023-03-15T02:53:30;98778.13;;;11.46;64.53
60240;BME280;46102;39.012;-7.064;2023-03-15T02:55:31;98768.06;;;11.41;64.54
60240;BME280;46102;39.012;-7.064;2023-03-15T02:57:32;98779.19;;;11.36;64.70
60240;BME280;46102;39.012;-7.064;2023-03-15T02:59:34;98774.84;;;11.35;64.73
60240;BME280;46102;39.012;-7.064;2023-03-15T03:01:35;98763.22;;;11.38;64.98
60240;BME280;46102;39.012;-7.064;2023-03-15T03:03:37;98768.91;;;11.42;64.78
60240;BME280;46102;39.012;-7.064;2023-03-15T03:05:38;98759.66;;;11.38;64.82
60240;BME280;46102;39.012;-7.064;2023-03-15T03:07:39;98760.91;;;11.32;65.08
60240;BME280;46102;39.012;-7.064;2023-03-15T03:09:43;98753.00;;;11.30;65.08
60240;BME280;46102;39.012;-7.064;2023-03-15T03:11:45;98755.88;;;11.25;65.29
60240;BME280;46102;39.012;-7.064;2023-03-15T03:13:46;98757.69;;;11.30;65.01
60240;BME280;46102;39.012;-7.064;2023-03-15T03:15:50;98759.63;;;11.29;65.21
60240;BME280;46102;39.012;-7.064;2023-03-15T03:17:59;98753.81;;;11.31;65.34
60240;BME280;46102;39.012;-7.064;2023-03-15T03:20:00;98752.19;;;11.30;65.34
60240;BME280;46102;39.012;-7.064;2023-03-15T03:22:07;98755.53;;;11.18;65.71
60240;BME280;46102;39.012;-7.064;2023-03-15T03:24:09;98750.19;;;11.13;66.27
60240;BME280;46102;39.012;-7.064;2023-03-15T03:26:12;98750.34;;;11.16;65.88
60240;BME280;46102;39.012;-7.064;2023-03-15T03:28:17;98751.63;;;11.10;66.01
60240;BME280;46102;39.012;-7.064;2023-03-15T03:30:18;98746.94;;;11.11;66.15
60240;BME280;46102;39.012;-7.064;2023-03-15T03:32:24;98732.69;;;11.00;66.29
60240;BME280;46102;39.012;-7.064;2023-03-15T03:34:26;98746.09;;;11.01;66.22
60240;BME280;46102;39.012;-7.064;2023-03-15T03:36:27;98744.81;;;10.99;66.26
60240;BME280;46102;39.012;-7.064;2023-03-15T03:38:28;98740.78;;;11.05;66.01
60240;BME280;46102;39.012;-7.064;2023-03-15T03:40:31;98735.13;;;11.01;66.02
60240;BME280;46102;39.012;-7.064;2023-03-15T03:42:33;98723.63;;;10.99;66.17
60240;BME280;46102;39.012;-7.064;2023-03-15T03:44:34;98731.03;;;10.90;66.50
60240;BME280;46102;39.012;-7.064;2023-03-15T03:46:35;98730.03;;;10.86;66.66
60240;BME280;46102;39.012;-7.064;2023-03-15T03:48:36;98727.78;;;10.88;66.51
60240;BME280;46102;39.012;-7.064;2023-03-15T03:50:36;98718.25;;;10.86;66.41
60240;BME280;46102;39.012;-7.064;2023-03-15T03:52:37;98723.41;;;10.87;66.45
60240;BME280;46102;39.012;-7.064;2023-03-15T03:54:42;98727.28;;;10.86;65.73
60240;BME280;46102;39.012;-7.064;2023-03-15T03:56:43;98727.78;;;10.88;65.94
60240;BME280;46102;39.012;-7.064;2023-03-15T03:58:44;98731.19;;;10.94;65.66
60240;BME280;46102;39.012;-7.064;2023-03-15T04:00:50;98725.84;;;10.89;65.58
60240;BME280;46102;39.012;-7.064;2023-03-15T04:02:53;98727.94;;;10.92;65.36
60240;BME280;46102;39.012;-7.064;2023-03-15T04:04:54;98727.16;;;10.91;65.39
60240;BME280;46102;39.012;-7.064;2023-03-15T04:06:55;98725.84;;;10.89;65.30
60240;BME280;46102;39.012;-7.064;2023-03-15T04:09:00;98729.38;;;10.89;65.27
60240;BME280;46102;39.012;-7.064;2023-03-15T04:11:12;98722.09;;;10.84;65.29
60240;BME280;46102;39.012;-7.064;2023-03-15T04:13:18;98721.59;;;10.82;65.55
60240;BME280;46102;39.012;-7.064;2023-03-15T04:15:19;98722.91;;;10.85;65.44
60240;BME280;46102;39.012;-7.064;2023-03-15T04:17:22;98723.25;;;10.83;65.38
60240;BME280;46102;39.012;-7.064;2023-03-15T04:19:23;98726.66;;;10.89;65.26
60240;BME280;46102;39.012;-7.064;2023-03-15T04:21:25;98720.41;;;10.97;64.80
60240;BME280;46102;39.012;-7.064;2023-03-15T04:23:32;98724.34;;;10.82;65.02
60240;BME280;46102;39.012;-7.064;2023-03-15T04:25:33;98718.50;;;10.75;65.33
60240;BME280;46102;39.012;-7.064;2023-03-15T04:27:48;98721.25;;;10.75;65.46
60240;BME280;46102;39.012;-7.064;2023-03-15T04:30:12;98714.00;;;10.79;65.13
60240;BME280;46102;39.012;-7.064;2023-03-15T04:32:25;98724.69;;;10.81;64.93
60240;BME280;46102;39.012;-7.064;2023-03-15T04:34:50;98718.19;;;10.77;64.94
60240;BME280;46102;39.012;-7.064;2023-03-15T04:37:02;98715.94;;;10.79;64.66
60240;BME280;46102;39.012;-7.064;2023-03-15T04:39:13;98712.06;;;10.80;64.78
60240;BME280;46102;39.012;-7.064;2023-03-15T04:41:39;98711.75;;;10.81;64.50
60240;BME280;46102;39.012;-7.064;2023-03-15T04:43:46;98720.31;;;10.80;64.39
60240;BME280;46102;39.012;-7.064;2023-03-15T04:46:21;98717.56;;;10.80;64.53
60240;BME280;46102;39.012;-7.064;2023-03-15T04:48:41;98711.63;;;10.87;64.27
60240;BME280;46102;39.012;-7.064;2023-03-15T04:50:54;98708.38;;;10.84;64.19
60240;BME280;46102;39.012;-7.064;2023-03-15T04:53:06;98700.94;;;10.85;64.21
60240;BME280;46102;39.012;-7.064;2023-03-15T04:55:11;98698.66;;;10.78;64.24
60240;BME280;46102;39.012;-7.064;2023-03-15T04:57:32;98698.84;;;10.82;64.00
60240;BME280;46102;39.012;-7.064;2023-03-15T04:59:44;98701.72;;;10.77;64.25
60240;BME280;46102;39.012;-7.064;2023-03-15T05:02:04;98697.19;;;10.72;64.47
60240;BME280;46102;39.012;-7.064;2023-03-15T05:04:15;98689.47;;;10.74;64.40
60240;BME280;46102;39.012;-7.064;2023-03-15T05:06:24;98697.13;;;10.63;64.64
60240;BME280;46102;39.012;-7.064;2023-03-15T05:08:50;98689.22;;;10.62;64.72
60240;BME280;46102;39.012;-7.064;2023-03-15T05:11:05;98687.47;;;10.66;64.35
60240;BME280;46102;39.012;-7.064;2023-03-15T05:13:26;98684.53;;;10.62;64.59
60240;BME280;46102;39.012;-7.064;2023-03-15T05:15:53;98683.22;;;10.60;64.45
60240;BME280;46102;39.012;-7.064;2023-03-15T05:18:12;98679.19;;;10.57;64.47
60240;BME280;46102;39.012;-7.064;2023-03-15T05:20:42;98676.13;;;10.59;64.13
60240;BME280;46102;39.012;-7.064;2023-03-15T05:22:53;98677.75;;;10.60;64.12
60240;BME280;46102;39.012;-7.064;2023-03-15T05:25:07;98673.09;;;10.60;63.77
60240;BME280;46102;39.012;-7.064;2023-03-15T05:27:24;98680.47;;;10.60;63.74
60240;BME280;46102;39.012;-7.064;2023-03-15T05:29:40;98668.22;;;10.57;63.79
60240;BME280;46102;39.012;-7.064;2023-03-15T05:31:59;98675.00;;;10.60;63.94
60240;BME280;46102;39.012;-7.064;2023-03-15T05:34:13;98680.47;;;10.60;63.94
60240;BME280;46102;39.012;-7.064;2023-03-15T05:36:33;98671.94;;;10.61;64.01
60240;BME280;46102;39.012;-7.064;2023-03-15T05:38:57;98676.06;;;10.50;64.49
60240;BME280;46102;39.012;-7.064;2023-03-15T05:41:12;98682.00;;;10.44;64.63
60240;BME280;46102;39.012;-7.064;2023-03-15T05:43:23;98678.63;;;10.47;64.46
60240;BME280;46102;39.012;-7.064;2023-03-15T05:45:42;98682.31;;;10.42;64.82
60240;BME280;46102;39.012;-7.064;2023-03-15T05:48:03;98678.97;;;10.45;65.04
60240;BME280;46102;39.012;-7.064;2023-03-15T05:50:11;98678.09;;;10.36;65.35
60240;BME280;46102;39.012;-7.064;2023-03-15T05:52:18;98675.66;;;10.34;65.64
60240;BME280;46102;39.012;-7.064;2023-03-15T05:54:45;98676.88;;;10.28;66.01
60240;BME280;46102;39.012;-7.064;2023-03-15T05:57:15;98668.28;;;10.21;65.83
60240;BME280;46102;39.012;-7.064;2023-03-15T05:59:28;98673.47;;;10.23;66.11
60240;BME280;46102;39.012;-7.064;2023-03-15T06:01:44;98680.31;;;10.11;66.29
60240;BME280;46102;39.012;-7.064;2023-03-15T06:03:54;98682.41;;;10.14;66.51
60240;BME280;46102;39.012;-7.064;2023-03-15T06:06:00;98687.81;;;10.06;67.03
60240;BME280;46102;39.012;-7.064;2023-03-15T06:08:10;98679.72;;;10.00;67.27
60240;BME280;46102;39.012;-7.064;2023-03-15T06:10:15;98675.34;;;9.99;66.92
60240;BME280;46102;39.012;-7.064;2023-03-15T06:12:16;98685.00;;;9.97;66.81
60240;BME280;46102;39.012;-7.064;2023-03-15T06:14:17;98682.91;;;9.94;66.71
60240;BME280;46102;39.012;-7.064;2023-03-15T06:16:26;98690.63;;;9.92;66.94
60240;BME280;46102;39.012;-7.064;2023-03-15T06:18:30;98690.00;;;9.95;67.38
60240;BME280;46102;39.012;-7.064;2023-03-15T06:20:31;98686.56;;;9.89;67.62
60240;BME280;46102;39.012;-7.064;2023-03-15T06:22:37;98692.47;;;9.83;67.49
60240;BME280;46102;39.012;-7.064;2023-03-15T06:24:45;98691.16;;;9.80;67.89
60240;BME280;46102;39.012;-7.064;2023-03-15T06:26:46;98693.41;;;9.78;67.74
60240;BME280;46102;39.012;-7.064;2023-03-15T06:28:47;98694.84;;;9.75;67.68
60240;BME280;46102;39.012;-7.064;2023-03-15T06:30:48;98693.53;;;9.73;68.24
60240;BME280;46102;39.012;-7.064;2023-03-15T06:32:50;98693.94;;;9.66;68.26
60240;BME280;46102;39.012;-7.064;2023-03-15T06:34:52;98698.41;;;9.62;68.34
60240;BME280;46102;39.012;-7.064;2023-03-15T06:36:53;98689.06;;;9.63;68.45
60240;BME280;46102;39.012;-7.064;2023-03-15T06:38:55;98686.66;;;9.62;68.22
60240;BME280;46102;39.012;-7.064;2023-03-15T06:40:57;98690.47;;;9.74;68.07
60240;BME280;46102;39.012;-7.064;2023-03-15T06:43:01;98688.56;;;9.61;67.96
60240;BME280;46102;39.012;-7.064;2023-03-15T06:45:07;98693.84;;;9.57;68.73
60240;BME280;46102;39.012;-7.064;2023-03-15T06:47:10;98692.34;;;9.51;68.27
60240;BME280;46102;39.012;-7.064;2023-03-15T06:49:11;98697.31;;;9.49;68.12
60240;BME280;46102;39.012;-7.064;2023-03-15T06:51:12;98692.34;;;9.51;68.25
60240;BME280;46102;39.012;-7.064;2023-03-15T06:53:14;98698.63;;;9.52;68.69
60240;BME280;46102;39.012;-7.064;2023-03-15T06:55:15;98691.41;;;9.56;68.41
60240;BME280;46102;39.012;-7.064;2023-03-15T06:57:18;98699.63;;;9.56;68.35
60240;BME280;46102;39.012;-7.064;2023-03-15T06:59:19;98695.16;;;9.60;68.33
60240;BME280;46102;39.012;-7.064;2023-03-15T07:01:20;98701.66;;;9.64;68.41
60240;BME280;46102;39.012;-7.064;2023-03-15T07:03:20;98695.03;;;9.65;68.19
60240;BME280;46102;39.012;-7.064;2023-03-15T07:05:23;98702.97;;;9.67;68.20
60240;BME280;46102;39.012;-7.064;2023-03-15T07:07:23;98701.03;;;9.67;68.20
60240;BME280;46102;39.012;-7.064;2023-03-15T07:09:24;98701.03;;;9.67;68.20
60240;BME280;46102;39.012;-7.064;2023-03-15T07:11:25;98701.03;;;9.67;68.06
60240;BME280;46102;39.012;-7.064;2023-03-15T07:13:26;98713.13;;;9.66;68.33
60240;BME280;46102;39.012;-7.064;2023-03-15T07:15:26;98705.72;;;9.67;68.89
60240;BME280;46102;39.012;-7.064;2023-03-15T07:17:27;98707.81;;;9.70;68.88
60240;BME280;46102;39.012;-7.064;2023-03-15T07:19:28;98707.81;;;9.70;69.09
60240;BME280;46102;39.012;-7.064;2023-03-15T07:21:29;98703.06;;;9.75;69.05
60240;BME280;46102;39.012;-7.064;2023-03-15T07:23:30;98707.91;;;9.78;69.29
60240;BME280;46102;39.012;-7.064;2023-03-15T07:25:31;98702.13;;;9.80;69.04
60240;BME280;46102;39.012;-7.064;2023-03-15T07:27:32;98707.78;;;9.84;69.01
60240;BME280;46102;39.012;-7.064;2023-03-15T07:29:32;98704.94;;;9.89;69.24
60240;BME280;46102;39.012;-7.064;2023-03-15T07:31:33;98706.50;;;10.04;68.44
60240;BME280;46102;39.012;-7.064;2023-03-15T07:33:34;98709.19;;;10.17;68.37
60240;BME280;46102;39.012;-7.064;2023-03-15T07:35:38;98703.25;;;10.38;67.50
60240;BME280;46102;39.012;-7.064;2023-03-15T07:37:39;98702.88;;;10.53;66.77
60240;BME280;46102;39.012;-7.064;2023-03-15T07:39:40;98703.78;;;10.71;66.39
60240;BME280;46102;39.012;-7.064;2023-03-15T07:41:41;98700.00;;;10.90;65.93
60240;BME280;46102;39.012;-7.064;2023-03-15T07:43:54;98710.75;;;11.09;65.14
60240;BME280;46102;39.012;-7.064;2023-03-15T07:45:55;98707.25;;;11.25;64.49
60240;BME280;46102;39.012;-7.064;2023-03-15T07:47:55;98713.78;;;11.38;63.70
60240;BME280;46102;39.012;-7.064;2023-03-15T07:49:56;98710.59;;;11.54;63.31
60240;BME280;46102;39.012;-7.064;2023-03-15T07:51:57;98717.88;;;11.67;62.70
60240;BME280;46102;39.012;-7.064;2023-03-15T07:53:58;98707.09;;;11.88;62.39
60240;BME280;46102;39.012;-7.064;2023-03-15T07:55:58;98705.03;;;11.94;62.00
60240;BME280;46102;39.012;-7.064;2023-03-15T07:58:01;98715.38;;;12.14;62.07
60240;BME280;46102;39.012;-7.064;2023-03-15T08:00:02;98717.78;;;12.33;61.37
60240;BME280;46102;39.012;-7.064;2023-03-15T08:02:13;98711.97;;;12.52;60.86
60240;BME280;46102;39.012;-7.064;2023-03-15T08:04:14;98715.03;;;12.59;59.74
60240;BME280;46102;39.012;-7.064;2023-03-15T08:06:15;98714.34;;;12.62;59.93
60240;BME280;46102;39.012;-7.064;2023-03-15T08:08:16;98716.31;;;12.62;59.63
60240;BME280;46102;39.012;-7.064;2023-03-15T08:10:17;98713.88;;;12.69;59.40
60240;BME280;46102;39.012;-7.064;2023-03-15T08:12:17;98716.28;;;12.70;59.27
60240;BME280;46102;39.012;-7.064;2023-03-15T08:14:18;98711.41;;;12.76;59.29
60240;BME280;46102;39.012;-7.064;2023-03-15T08:16:19;98714.16;;;12.85;58.79
60240;BME280;46102;39.012;-7.064;2023-03-15T08:18:20;98718.66;;;12.98;58.35
60240;BME280;46102;39.012;-7.064;2023-03-15T08:20:21;98717.63;;;13.11;57.22
60240;BME280;46102;39.012;-7.064;2023-03-15T08:22:21;98709.81;;;13.22;56.77
60240;BME280;46102;39.012;-7.064;2023-03-15T08:24:23;98704.31;;;13.22;56.51
60240;BME280;46102;39.012;-7.064;2023-03-15T08:26:24;98710.44;;;13.28;56.35
60240;BME280;46102;39.012;-7.064;2023-03-15T08:28:25;98710.56;;;13.40;55.84
60240;BME280;46102;39.012;-7.064;2023-03-15T08:30:26;98719.56;;;13.58;56.03
60240;BME280;46102;39.012;-7.064;2023-03-15T08:32:26;98720.97;;;13.64;55.14
60240;BME280;46102;39.012;-7.064;2023-03-15T08:34:27;98722.06;;;13.72;55.21
60240;BME280;46102;39.012;-7.064;2023-03-15T08:36:28;98718.91;;;13.82;55.37
60240;BME280;46102;39.012;-7.064;2023-03-15T08:38:29;98712.84;;;13.89;54.87
60240;BME280;46102;39.012;-7.064;2023-03-15T08:40:30;98719.75;;;14.04;54.55
60240;BME280;46102;39.012;-7.064;2023-03-15T08:42:31;98719.34;;;14.14;54.05
60240;BME280;46102;39.012;-7.064;2023-03-15T08:44:32;98725.38;;;14.28;53.96
60240;BME280;46102;39.012;-7.064;2023-03-15T08:46:32;98715.28;;;14.32;53.40
60240;BME280;46102;39.012;-7.064;2023-03-15T08:48:33;98726.91;;;14.38;53.53
60240;BME280;46102;39.012;-7.064;2023-03-15T08:50:34;98730.88;;;14.49;53.55
60240;BME280;46102;39.012;-7.064;2023-03-15T08:52:36;98727.75;;;14.60;52.85
60240;BME280;46102;39.012;-7.064;2023-03-15T08:54:37;98728.72;;;14.76;53.02
60240;BME280;46102;39.012;-7.064;2023-03-15T08:56:38;98715.19;;;14.95;52.32
60240;BME280;46102;39.012;-7.064;2023-03-15T08:58:38;98722.00;;;15.10;51.91
60240;BME280;46102;39.012;-7.064;2023-03-15T09:00:39;98723.38;;;15.16;51.74
60240;BME280;46102;39.012;-7.064;2023-03-15T09:02:40;98727.44;;;15.31;51.60
60240;BME280;46102;39.012;-7.064;2023-03-15T09:04:41;98732.03;;;15.39;51.20
60240;BME280;46102;39.012;-7.064;2023-03-15T09:06:42;98724.44;;;15.36;50.26
60240;BME280;46102;39.012;-7.064;2023-03-15T09:08:42;98718.00;;;15.45;50.30
60240;BME280;46102;39.012;-7.064;2023-03-15T09:10:43;98724.91;;;15.51;50.13
60240;BME280;46102;39.012;-7.064;2023-03-15T09:12:46;98715.69;;;15.59;48.75
60240;BME280;46102;39.012;-7.064;2023-03-15T09:14:47;98718.78;;;15.70;49.05
60240;BME280;46102;39.012;-7.064;2023-03-15T09:16:48;98720.31;;;15.79;49.04
60240;BME280;46102;39.012;-7.064;2023-03-15T09:18:49;98713.28;;;15.82;48.50
60240;BME280;46102;39.012;-7.064;2023-03-15T09:20:50;98715.78;;;15.87;48.48
60240;BME280;46102;39.012;-7.064;2023-03-15T09:22:55;98719.81;;;16.02;49.02
60240;BME280;46102;39.012;-7.064;2023-03-15T09:24:56;98712.59;;;16.26;48.51
60240;BME280;46102;39.012;-7.064;2023-03-15T09:26:57;98721.66;;;16.38;47.30
60240;BME280;46102;39.012;-7.064;2023-03-15T09:28:58;98704.28;;;16.54;46.89
60240;BME280;46102;39.012;-7.064;2023-03-15T09:31:02;98717.13;;;16.74;46.56
60240;BME280;46102;39.012;-7.064;2023-03-15T09:33:03;98704.13;;;16.91;46.54
60240;BME280;46102;39.012;-7.064;2023-03-15T09:35:06;98708.53;;;17.08;46.19
60240;BME280;46102;39.012;-7.064;2023-03-15T09:37:07;98704.88;;;17.19;45.82
60240;BME280;46102;39.012;-7.064;2023-03-15T09:39:08;98707.91;;;17.30;45.84
60240;BME280;46102;39.012;-7.064;2023-03-15T09:41:28;98710.41;;;17.35;45.82
60240;BME280;46102;39.012;-7.064;2023-03-15T09:43:51;98707.38;;;17.56;45.69
60240;BME280;46102;39.012;-7.064;2023-03-15T09:50:25;98698.50;;;18.02;45.35
60240;BME280;46102;39.012;-7.064;2023-03-15T09:52:38;98691.50;;;18.27;45.01
60240;BME280;46102;39.012;-7.064;2023-03-15T09:54:51;98694.06;;;18.56;44.07
60240;BME280;46102;39.012;-7.064;2023-03-15T09:57:02;98696.69;;;18.48;43.64
60240;BME280;46102;39.012;-7.064;2023-03-15T09:59:06;98685.53;;;18.45;43.63
60240;BME280;46102;39.012;-7.064;2023-03-15T10:01:12;98687.47;;;18.64;43.82
60240;BME280;46102;39.012;-7.064;2023-03-15T10:05:41;98686.69;;;18.83;43.41
60240;BME280;46102;39.012;-7.064;2023-03-15T10:07:43;98685.06;;;19.05;42.97
60240;BME280;46102;39.012;-7.064;2023-03-15T10:09:44;98684.94;;;18.98;42.79
60240;BME280;46102;39.012;-7.064;2023-03-15T10:16:17;98673.63;;;19.33;42.47
60240;BME280;46102;39.012;-7.064;2023-03-15T10:18:32;98671.13;;;19.51;42.04
60240;BME280;46102;39.012;-7.064;2023-03-15T10:20:41;98670.06;;;19.59;41.60
60240;BME280;46102;39.012;-7.064;2023-03-15T10:22:57;98670.50;;;19.88;40.97
60240;BME280;46102;39.012;-7.064;2023-03-15T10:24:59;98670.41;;;19.81;41.14
60240;BME280;46102;39.012;-7.064;2023-03-15T10:27:14;98661.88;;;19.70;40.99
60240;BME280;46102;39.012;-7.064;2023-03-15T10:29:20;98660.63;;;19.67;41.29
60240;BME280;46102;39.012;-7.064;2023-03-15T10:31:26;98655.16;;;19.71;40.97
60240;BME280;46102;39.012;-7.064;2023-03-15T10:33:36;98655.72;;;19.57;42.02
60240;BME280;46102;39.012;-7.064;2023-03-15T10:35:37;98655.31;;;19.59;41.54
60240;BME280;46102;39.012;-7.064;2023-03-15T10:37:38;98648.69;;;19.67;41.06
60240;BME280;46102;39.012;-7.064;2023-03-15T10:39:39;98654.28;;;19.67;41.38
60240;BME280;46102;39.012;-7.064;2023-03-15T10:41:48;98651.56;;;19.70;40.51
60240;BME280;46102;39.012;-7.064;2023-03-15T10:43:59;98648.59;;;19.60;40.33
60240;BME280;46102;39.012;-7.064;2023-03-15T10:46:21;98642.13;;;19.52;41.11
60240;BME280;46102;39.012;-7.064;2023-03-15T10:48:22;98640.00;;;19.68;41.06
60240;BME280;46102;39.012;-7.064;2023-03-15T10:50:28;98632.28;;;19.85;41.08
60240;BME280;46102;39.012;-7.064;2023-03-15T10:52:39;98629.88;;;20.13;40.28
60240;BME280;46102;39.012;-7.064;2023-03-15T10:54:41;98629.31;;;20.34;39.55
60240;BME280;46102;39.012;-7.064;2023-03-15T10:57:04;98618.66;;;20.44;39.61
60240;BME280;46102;39.012;-7.064;2023-03-15T10:59:14;98617.25;;;20.57;38.49
60240;BME280;46102;39.012;-7.064;2023-03-15T11:01:26;98617.94;;;20.50;37.95
60240;BME280;46102;39.012;-7.064;2023-03-15T11:03:28;98618.22;;;20.38;39.63
60240;BME280;46102;39.012;-7.064;2023-03-15T11:05:31;98615.53;;;20.49;40.16
60240;BME280;46102;39.012;-7.064;2023-03-15T11:07:35;98609.75;;;20.65;39.30
60240;BME280;46102;39.012;-7.064;2023-03-15T11:09:54;98607.97;;;20.87;39.37
60240;BME280;46102;39.012;-7.064;2023-03-15T11:12:02;98606.22;;;21.16;38.93
60240;BME280;46102;39.012;-7.064;2023-03-15T11:14:05;98605.56;;;21.33;37.61